Victoria, British Columbia

2:52 PM PDT on June 03, 2015 (GMT -0700)
Victoria International | | Change Station
CLOSE
Current Station
Airport
Location: Victoria,
Elevation: 62 ft
Nearby Weather Stations

Elev 62 ft 48.65 °N, 123.43 °W | Updated 52 minutes ago

Mostly Cloudy
Mostly Cloudy
63 °F
Feels Like 63 °F
N
7
Wind Variable Wind from ESE

Today is forecast to be nearly the same temperature as yesterday.

Today
High -- | Low -- °F
--% Chance of Precip.
Yesterday
High -- | Low -- °F
Precip. -- in
5:14 AM 9:09 PM
Full, 98% visible
Pressure 30.05 in
Visibility 30.0 miles
Clouds Few 4000 ft
Mostly Cloudy 5700 ft
Mostly Cloudy 10000 ft
Dew Point 50 °F
Humidity 63%
Rainfall 0.00 in
Snow Depth Not available.
UV 5 out of 12
Pollen Not available.
Air Quality Not available.
Flu Activity Not available.
METAR CYYJ 032100Z 11006KT 30SM FEW040 BKN057 BKN100 17/10 A3005 RMK CU1SC5AC2 CU TR SLP176 DENSITY ALT 100FT

More Conditions Fewer Conditions

Pressure 30.05 in
Visibility 30.0 miles
Clouds Few 4000 ft
Mostly Cloudy 5700 ft
Mostly Cloudy 10000 ft
Dew Point 50 °F
Humidity 63%
Rainfall 0.00 in
Snow Depth Not available.
UV 5 out of 12
Pollen Not available.
Air Quality Not available.
Flu Activity Not available.
METAR CYYJ 032100Z 11006KT 30SM FEW040 BKN057 BKN100 17/10 A3005 RMK CU1SC5AC2 CU TR SLP176 DENSITY ALT 100FT

More Conditions Fewer Conditions

10-Day Weather Forecast

×

Almanac

Astronomy

Jun. 03, 2015 Rise Set
Actual Time
Civil Twilight
Nautical Twilight
Astronomical Twilight
Moon
Length of Visible Light
Length of Day
Tomorrow will be .
, % of the Moon is Illuminated

Today's Extremes

Country Highs Country Lows

Community

WunderPhotos

Upload Photos

1,826,291 photos uploaded!

WunderBlogs® & News

Nearby

Air Quality

  Air Quality AQ Index Pollutant
Not available.

Snow Depth

Station Depth Elevation

Earthquake Activity

City Distance Mag. Time & Date
Minimum magnitude displayed is 2.5.

Coastal Water Temperatures

Place Temperature

Stations

Nearby Weather Stations

Station Location Temp. Windchill Dew Point Humidity Wind Precip. Elev Updated Type